sensor_id;sensor_type;location;lat;lon;timestamp;P1;durP1;ratioP1;P2;durP2;ratioP2
53253;SDS011;39148;53.332;6.922;2023-03-20T00:00:28;5.65;;;2.60;;
53253;SDS011;39148;53.332;6.922;2023-03-20T00:03:02;5.97;;;2.28;;
53253;SDS011;39148;53.332;6.922;2023-03-20T00:05:29;5.57;;;2.63;;
53253;SDS011;39148;53.332;6.922;2023-03-20T00:07:56;6.55;;;2.88;;
53253;SDS011;39148;53.332;6.922;2023-03-20T00:10:28;6.00;;;2.60;;
53253;SDS011;39148;53.332;6.922;2023-03-20T00:12:55;7.30;;;2.75;;
53253;SDS011;39148;53.332;6.922;2023-03-20T00:15:32;5.68;;;2.50;;
53253;SDS011;39148;53.332;6.922;2023-03-20T00:17:59;5.78;;;2.90;;
53253;SDS011;39148;53.332;6.922;2023-03-20T00:20:26;5.45;;;2.85;;
53253;SDS011;39148;53.332;6.922;2023-03-20T00:22:52;6.13;;;2.90;;
53253;SDS011;39148;53.332;6.922;2023-03-20T00:25:22;5.75;;;2.95;;
53253;SDS011;39148;53.332;6.922;2023-03-20T00:27:49;6.82;;;3.03;;
53253;SDS011;39148;53.332;6.922;2023-03-20T00:30:23;7.03;;;2.83;;
53253;SDS011;39148;53.332;6.922;2023-03-20T00:32:50;5.05;;;3.03;;
53253;SDS011;39148;53.332;6.922;2023-03-20T00:35:24;6.30;;;2.88;;
53253;SDS011;39148;53.332;6.922;2023-03-20T00:37:52;5.20;;;2.60;;
53253;SDS011;39148;53.332;6.922;2023-03-20T00:40:19;5.45;;;2.80;;
53253;SDS011;39148;53.332;6.922;2023-03-20T00:42:47;6.43;;;2.75;;
53253;SDS011;39148;53.332;6.922;2023-03-20T00:45:16;6.00;;;2.72;;
53253;SDS011;39148;53.332;6.922;2023-03-20T00:47:42;6.18;;;2.60;;
53253;SDS011;39148;53.332;6.922;2023-03-20T00:50:15;6.68;;;2.75;;
53253;SDS011;39148;53.332;6.922;2023-03-20T00:52:42;7.65;;;2.80;;
53253;SDS011;39148;53.332;6.922;2023-03-20T00:55:09;5.20;;;2.50;;
53253;SDS011;39148;53.332;6.922;2023-03-20T00:57:39;6.63;;;2.95;;
53253;SDS011;39148;53.332;6.922;2023-03-20T01:02:38;6.20;;;2.58;;
53253;SDS011;39148;53.332;6.922;2023-03-20T01:05:05;5.32;;;2.60;;
53253;SDS011;39148;53.332;6.922;2023-03-20T01:07:31;8.30;;;2.95;;
53253;SDS011;39148;53.332;6.922;2023-03-20T01:09:57;5.20;;;2.42;;
53253;SDS011;39148;53.332;6.922;2023-03-20T01:12:23;5.78;;;2.60;;
53253;SDS011;39148;53.332;6.922;2023-03-20T01:14:53;5.47;;;2.70;;
53253;SDS011;39148;53.332;6.922;2023-03-20T01:17:21;7.10;;;2.70;;
53253;SDS011;39148;53.332;6.922;2023-03-20T01:19:48;5.60;;;2.60;;
53253;SDS011;39148;53.332;6.922;2023-03-20T01:22:14;4.85;;;2.60;;
53253;SDS011;39148;53.332;6.922;2023-03-20T01:24:43;4.93;;;2.60;;
53253;SDS011;39148;53.332;6.922;2023-03-20T01:27:14;4.57;;;2.45;;
53253;SDS011;39148;53.332;6.922;2023-03-20T01:29:42;5.88;;;2.60;;
53253;SDS011;39148;53.332;6.922;2023-03-20T01:32:10;4.95;;;2.80;;
53253;SDS011;39148;53.332;6.922;2023-03-20T01:34:36;5.45;;;2.70;;
53253;SDS011;39148;53.332;6.922;2023-03-20T01:37:02;6.07;;;2.67;;
53253;SDS011;39148;53.332;6.922;2023-03-20T01:39:32;5.40;;;2.58;;
53253;SDS011;39148;53.332;6.922;2023-03-20T01:42:00;5.75;;;2.28;;
53253;SDS011;39148;53.332;6.922;2023-03-20T01:44:28;8.98;;;2.80;;
53253;SDS011;39148;53.332;6.922;2023-03-20T01:46:55;7.45;;;3.08;;
53253;SDS011;39148;53.332;6.922;2023-03-20T01:51:48;6.32;;;2.70;;
53253;SDS011;39148;53.332;6.922;2023-03-20T01:54:18;5.40;;;2.67;;
53253;SDS011;39148;53.332;6.922;2023-03-20T01:59:23;6.43;;;2.30;;
53253;SDS011;39148;53.332;6.922;2023-03-20T02:01:50;4.72;;;2.15;;
53253;SDS011;39148;53.332;6.922;2023-03-20T02:04:16;5.32;;;2.50;;
53253;SDS011;39148;53.332;6.922;2023-03-20T02:06:44;5.13;;;2.30;;
53253;SDS011;39148;53.332;6.922;2023-03-20T02:09:11;5.80;;;2.45;;
53253;SDS011;39148;53.332;6.922;2023-03-20T02:11:37;5.20;;;2.22;;
53253;SDS011;39148;53.332;6.922;2023-03-20T02:14:05;5.65;;;2.17;;
53253;SDS011;39148;53.332;6.922;2023-03-20T02:16:33;4.47;;;2.10;;
53253;SDS011;39148;53.332;6.922;2023-03-20T02:18:59;4.68;;;2.00;;
53253;SDS011;39148;53.332;6.922;2023-03-20T02:32:13;5.88;;;2.17;;
53253;SDS011;39148;53.332;6.922;2023-03-20T02:47:47;5.28;;;2.28;;
53253;SDS011;39148;53.332;6.922;2023-03-20T02:50:15;5.57;;;2.20;;
53253;SDS011;39148;53.332;6.922;2023-03-20T02:55:31;5.38;;;1.98;;
53253;SDS011;39148;53.332;6.922;2023-03-20T03:03:03;5.05;;;2.33;;
53253;SDS011;39148;53.332;6.922;2023-03-20T03:07:57;6.85;;;2.08;;
53253;SDS011;39148;53.332;6.922;2023-03-20T03:10:26;5.28;;;2.50;;
53253;SDS011;39148;53.332;6.922;2023-03-20T03:12:55;6.72;;;2.35;;
53253;SDS011;39148;53.332;6.922;2023-03-20T03:15:33;5.65;;;2.33;;
53253;SDS011;39148;53.332;6.922;2023-03-20T03:18:03;5.57;;;2.33;;
53253;SDS011;39148;53.332;6.922;2023-03-20T03:20:33;5.13;;;2.13;;
53253;SDS011;39148;53.332;6.922;2023-03-20T03:23:01;6.28;;;2.20;;
53253;SDS011;39148;53.332;6.922;2023-03-20T03:25:28;5.72;;;2.97;;
53253;SDS011;39148;53.332;6.922;2023-03-20T03:30:37;6.15;;;2.75;;
53253;SDS011;39148;53.332;6.922;2023-03-20T03:35:36;7.38;;;2.55;;
53253;SDS011;39148;53.332;6.922;2023-03-20T03:43:34;5.97;;;2.72;;
53253;SDS011;39148;53.332;6.922;2023-03-20T03:46:05;6.40;;;2.78;;
53253;SDS011;39148;53.332;6.922;2023-03-20T03:48:33;6.53;;;3.00;;
53253;SDS011;39148;53.332;6.922;2023-03-20T03:51:03;7.03;;;2.63;;
53253;SDS011;39148;53.332;6.922;2023-03-20T03:53:31;11.70;;;3.03;;
53253;SDS011;39148;53.332;6.922;2023-03-20T03:56:00;6.85;;;2.85;;
53253;SDS011;39148;53.332;6.922;2023-03-20T03:58:28;10.05;;;3.08;;
53253;SDS011;39148;53.332;6.922;2023-03-20T04:00:56;6.63;;;2.80;;
53253;SDS011;39148;53.332;6.922;2023-03-20T04:03:26;7.55;;;3.15;;
53253;SDS011;39148;53.332;6.922;2023-03-20T04:05:53;8.23;;;2.88;;
53253;SDS011;39148;53.332;6.922;2023-03-20T04:08:20;7.95;;;3.13;;
53253;SDS011;39148;53.332;6.922;2023-03-20T04:10:46;8.15;;;3.35;;
53253;SDS011;39148;53.332;6.922;2023-03-20T04:13:12;7.40;;;3.25;;
53253;SDS011;39148;53.332;6.922;2023-03-20T04:15:38;7.97;;;3.28;;
53253;SDS011;39148;53.332;6.922;2023-03-20T04:18:04;6.03;;;3.20;;
53253;SDS011;39148;53.332;6.922;2023-03-20T04:20:30;8.95;;;3.45;;
53253;SDS011;39148;53.332;6.922;2023-03-20T04:22:56;7.45;;;3.20;;
53253;SDS011;39148;53.332;6.922;2023-03-20T04:25:23;6.80;;;3.38;;
53253;SDS011;39148;53.332;6.922;2023-03-20T04:27:50;7.43;;;3.65;;
53253;SDS011;39148;53.332;6.922;2023-03-20T04:30:17;9.13;;;3.70;;
53253;SDS011;39148;53.332;6.922;2023-03-20T04:32:43;9.02;;;3.60;;
53253;SDS011;39148;53.332;6.922;2023-03-20T04:35:09;10.40;;;3.42;;
53253;SDS011;39148;53.332;6.922;2023-03-20T04:37:35;7.53;;;3.55;;
53253;SDS011;39148;53.332;6.922;2023-03-20T04:40:01;7.20;;;3.42;;
53253;SDS011;39148;53.332;6.922;2023-03-20T04:42:28;8.50;;;3.90;;
53253;SDS011;39148;53.332;6.922;2023-03-20T04:44:54;9.20;;;3.63;;
53253;SDS011;39148;53.332;6.922;2023-03-20T04:47:20;8.25;;;3.83;;
53253;SDS011;39148;53.332;6.922;2023-03-20T04:49:46;8.10;;;3.80;;
53253;SDS011;39148;53.332;6.922;2023-03-20T04:52:12;6.82;;;3.78;;
53253;SDS011;39148;53.332;6.922;2023-03-20T04:54:38;7.90;;;3.55;;
53253;SDS011;39148;53.332;6.922;2023-03-20T04:57:05;10.20;;;3.88;;
53253;SDS011;39148;53.332;6.922;2023-03-20T04:59:31;8.90;;;3.83;;
53253;SDS011;39148;53.332;6.922;2023-03-20T05:01:57;7.00;;;3.70;;
53253;SDS011;39148;53.332;6.922;2023-03-20T05:04:23;8.32;;;3.95;;
53253;SDS011;39148;53.332;6.922;2023-03-20T05:06:49;8.18;;;3.95;;
53253;SDS011;39148;53.332;6.922;2023-03-20T05:09:15;8.02;;;4.13;;
53253;SDS011;39148;53.332;6.922;2023-03-20T05:11:41;7.80;;;4.03;;
53253;SDS011;39148;53.332;6.922;2023-03-20T05:14:07;8.15;;;4.00;;
53253;SDS011;39148;53.332;6.922;2023-03-20T05:16:33;10.23;;;4.30;;
53253;SDS011;39148;53.332;6.922;2023-03-20T05:19:00;7.85;;;4.07;;
53253;SDS011;39148;53.332;6.922;2023-03-20T05:21:26;7.10;;;4.10;;
53253;SDS011;39148;53.332;6.922;2023-03-20T05:23:52;10.27;;;4.97;;
53253;SDS011;39148;53.332;6.922;2023-03-20T05:26:18;7.25;;;3.90;;
53253;SDS011;39148;53.332;6.922;2023-03-20T05:28:44;7.05;;;3.95;;
53253;SDS011;39148;53.332;6.922;2023-03-20T05:31:10;8.55;;;3.83;;
53253;SDS011;39148;53.332;6.922;2023-03-20T05:33:36;7.60;;;3.92;;
53253;SDS011;39148;53.332;6.922;2023-03-20T05:36:02;7.70;;;3.83;;
53253;SDS011;39148;53.332;6.922;2023-03-20T05:38:30;8.68;;;4.82;;
53253;SDS011;39148;53.332;6.922;2023-03-20T05:40:59;8.77;;;4.35;;
53253;SDS011;39148;53.332;6.922;2023-03-20T05:43:25;8.00;;;4.25;;
53253;SDS011;39148;53.332;6.922;2023-03-20T05:45:53;6.72;;;4.40;;
53253;SDS011;39148;53.332;6.922;2023-03-20T05:48:19;9.32;;;4.50;;
53253;SDS011;39148;53.332;6.922;2023-03-20T05:50:45;8.63;;;4.30;;
53253;SDS011;39148;53.332;6.922;2023-03-20T05:53:11;9.57;;;4.20;;
53253;SDS011;39148;53.332;6.922;2023-03-20T05:55:37;8.40;;;4.57;;
53253;SDS011;39148;53.332;6.922;2023-03-20T05:58:05;9.98;;;4.65;;
53253;SDS011;39148;53.332;6.922;2023-03-20T06:00:32;9.30;;;4.43;;
53253;SDS011;39148;53.332;6.922;2023-03-20T06:02:58;8.10;;;4.60;;
53253;SDS011;39148;53.332;6.922;2023-03-20T06:05:24;7.85;;;4.18;;
53253;SDS011;39148;53.332;6.922;2023-03-20T06:07:50;9.43;;;4.60;;
53253;SDS011;39148;53.332;6.922;2023-03-20T06:10:16;9.57;;;5.22;;
53253;SDS011;39148;53.332;6.922;2023-03-20T06:12:44;7.88;;;4.20;;
53253;SDS011;39148;53.332;6.922;2023-03-20T06:15:11;8.00;;;4.72;;
53253;SDS011;39148;53.332;6.922;2023-03-20T06:17:37;9.68;;;4.32;;
53253;SDS011;39148;53.332;6.922;2023-03-20T06:20:03;9.75;;;5.03;;
53253;SDS011;39148;53.332;6.922;2023-03-20T06:22:29;7.32;;;4.43;;
53253;SDS011;39148;53.332;6.922;2023-03-20T06:24:56;8.50;;;4.40;;
53253;SDS011;39148;53.332;6.922;2023-03-20T06:27:22;8.00;;;4.75;;
53253;SDS011;39148;53.332;6.922;2023-03-20T06:29:48;9.25;;;4.90;;
53253;SDS011;39148;53.332;6.922;2023-03-20T06:32:14;7.38;;;4.35;;
53253;SDS011;39148;53.332;6.922;2023-03-20T06:34:41;9.88;;;4.15;;
53253;SDS011;39148;53.332;6.922;2023-03-20T06:37:07;7.15;;;4.30;;
53253;SDS011;39148;53.332;6.922;2023-03-20T06:39:33;9.73;;;4.47;;
53253;SDS011;39148;53.332;6.922;2023-03-20T06:42:00;8.45;;;4.38;;
53253;SDS011;39148;53.332;6.922;2023-03-20T06:44:26;7.72;;;4.40;;
53253;SDS011;39148;53.332;6.922;2023-03-20T06:46:52;7.00;;;3.85;;
53253;SDS011;39148;53.332;6.922;2023-03-20T06:49:19;8.27;;;4.30;;
53253;SDS011;39148;53.332;6.922;2023-03-20T06:51:45;8.38;;;4.20;;
53253;SDS011;39148;53.332;6.922;2023-03-20T06:54:12;8.95;;;4.28;;
53253;SDS011;39148;53.332;6.922;2023-03-20T06:56:38;8.68;;;3.97;;
53253;SDS011;39148;53.332;6.922;2023-03-20T06:59:04;9.60;;;4.30;;
53253;SDS011;39148;53.332;6.922;2023-03-20T07:01:30;8.52;;;4.22;;
53253;SDS011;39148;53.332;6.922;2023-03-20T07:03:56;9.73;;;4.80;;
53253;SDS011;39148;53.332;6.922;2023-03-20T07:06:23;9.77;;;4.40;;
53253;SDS011;39148;53.332;6.922;2023-03-20T07:08:48;11.75;;;4.70;;
53253;SDS011;39148;53.332;6.922;2023-03-20T07:11:16;11.25;;;4.20;;
53253;SDS011;39148;53.332;6.922;2023-03-20T07:13:43;7.25;;;4.20;;
53253;SDS011;39148;53.332;6.922;2023-03-20T07:16:09;8.30;;;4.20;;
53253;SDS011;39148;53.332;6.922;2023-03-20T07:18:34;9.05;;;4.40;;
53253;SDS011;39148;53.332;6.922;2023-03-20T07:21:02;8.30;;;4.70;;
53253;SDS011;39148;53.332;6.922;2023-03-20T07:23:29;9.52;;;4.35;;
53253;SDS011;39148;53.332;6.922;2023-03-20T07:25:56;8.45;;;4.57;;
53253;SDS011;39148;53.332;6.922;2023-03-20T07:28:22;7.13;;;4.57;;
53253;SDS011;39148;53.332;6.922;2023-03-20T07:30:48;9.30;;;5.07;;
53253;SDS011;39148;53.332;6.922;2023-03-20T07:33:14;9.20;;;4.97;;
53253;SDS011;39148;53.332;6.922;2023-03-20T07:35:39;9.32;;;5.32;;
53253;SDS011;39148;53.332;6.922;2023-03-20T07:38:06;7.95;;;4.57;;
53253;SDS011;39148;53.332;6.922;2023-03-20T07:40:32;9.23;;;5.00;;
53253;SDS011;39148;53.332;6.922;2023-03-20T07:42:58;9.70;;;5.13;;
53253;SDS011;39148;53.332;6.922;2023-03-20T07:45:25;8.95;;;4.78;;
53253;SDS011;39148;53.332;6.922;2023-03-20T07:47:51;9.45;;;5.20;;
53253;SDS011;39148;53.332;6.922;2023-03-20T07:50:17;9.10;;;5.05;;
53253;SDS011;39148;53.332;6.922;2023-03-20T07:52:47;9.07;;;5.20;;
53253;SDS011;39148;53.332;6.922;2023-03-20T07:55:14;8.32;;;5.03;;
53253;SDS011;39148;53.332;6.922;2023-03-20T07:57:40;8.40;;;4.70;;
53253;SDS011;39148;53.332;6.922;2023-03-20T08:00:06;9.52;;;5.30;;
53253;SDS011;39148;53.332;6.922;2023-03-20T08:02:33;8.63;;;4.97;;
53253;SDS011;39148;53.332;6.922;2023-03-20T08:04:59;8.35;;;5.28;;
53253;SDS011;39148;53.332;6.922;2023-03-20T08:07:25;9.68;;;5.55;;
53253;SDS011;39148;53.332;6.922;2023-03-20T08:09:53;8.85;;;4.72;;
53253;SDS011;39148;53.332;6.922;2023-03-20T08:12:20;10.27;;;5.50;;
53253;SDS011;39148;53.332;6.922;2023-03-20T08:14:46;9.15;;;5.60;;
53253;SDS011;39148;53.332;6.922;2023-03-20T08:17:12;9.15;;;5.60;;
53253;SDS011;39148;53.332;6.922;2023-03-20T08:19:38;9.35;;;4.78;;
53253;SDS011;39148;53.332;6.922;2023-03-20T08:22:04;9.75;;;5.45;;
53253;SDS011;39148;53.332;6.922;2023-03-20T08:24:31;12.05;;;5.97;;
53253;SDS011;39148;53.332;6.922;2023-03-20T08:26:57;10.18;;;5.38;;
53253;SDS011;39148;53.332;6.922;2023-03-20T08:29:23;12.27;;;5.88;;
53253;SDS011;39148;53.332;6.922;2023-03-20T08:31:49;11.40;;;5.97;;
53253;SDS011;39148;53.332;6.922;2023-03-20T08:34:15;9.10;;;4.97;;
53253;SDS011;39148;53.332;6.922;2023-03-20T08:36:41;13.77;;;5.82;;
53253;SDS011;39148;53.332;6.922;2023-03-20T08:39:07;12.80;;;5.93;;
53253;SDS011;39148;53.332;6.922;2023-03-20T08:41:33;10.45;;;5.85;;
53253;SDS011;39148;53.332;6.922;2023-03-20T08:44:03;10.38;;;4.93;;
53253;SDS011;39148;53.332;6.922;2023-03-20T08:46:30;10.40;;;6.15;;
53253;SDS011;39148;53.332;6.922;2023-03-20T08:48:56;11.30;;;6.18;;
53253;SDS011;39148;53.332;6.922;2023-03-20T08:51:23;10.98;;;5.55;;
53253;SDS011;39148;53.332;6.922;2023-03-20T08:53:49;9.45;;;5.60;;
53253;SDS011;39148;53.332;6.922;2023-03-20T08:56:15;11.25;;;5.70;;
53253;SDS011;39148;53.332;6.922;2023-03-20T08:58:41;10.50;;;5.60;;
53253;SDS011;39148;53.332;6.922;2023-03-20T09:01:08;10.50;;;5.38;;
53253;SDS011;39148;53.332;6.922;2023-03-20T09:03:35;9.48;;;5.25;;
53253;SDS011;39148;53.332;6.922;2023-03-20T09:06:04;10.52;;;6.15;;
53253;SDS011;39148;53.332;6.922;2023-03-20T09:08:31;11.13;;;5.72;;
53253;SDS011;39148;53.332;6.922;2023-03-20T09:10:57;11.85;;;6.10;;
53253;SDS011;39148;53.332;6.922;2023-03-20T09:13:23;10.20;;;5.30;;
53253;SDS011;39148;53.332;6.922;2023-03-20T09:15:49;11.50;;;5.70;;
53253;SDS011;39148;53.332;6.922;2023-03-20T09:18:16;10.63;;;6.05;;
53253;SDS011;39148;53.332;6.922;2023-03-20T09:20:42;13.15;;;6.43;;
53253;SDS011;39148;53.332;6.922;2023-03-20T09:23:08;10.10;;;6.10;;
53253;SDS011;39148;53.332;6.922;2023-03-20T09:25:34;10.68;;;5.85;;
53253;SDS011;39148;53.332;6.922;2023-03-20T09:28:00;10.65;;;5.82;;
53253;SDS011;39148;53.332;6.922;2023-03-20T09:30:26;11.63;;;5.80;;
53253;SDS011;39148;53.332;6.922;2023-03-20T09:32:52;11.23;;;5.47;;
53253;SDS011;39148;53.332;6.922;2023-03-20T09:35:18;11.52;;;5.75;;
53253;SDS011;39148;53.332;6.922;2023-03-20T09:37:45;9.85;;;5.85;;
53253;SDS011;39148;53.332;6.922;2023-03-20T09:40:37;10.82;;;6.20;;
53253;SDS011;39148;53.332;6.922;2023-03-20T09:48:06;10.45;;;5.43;;
53253;SDS011;39148;53.332;6.922;2023-03-20T09:53:48;10.27;;;5.55;;
53253;SDS011;39148;53.332;6.922;2023-03-20T09:56:16;12.13;;;6.28;;
53253;SDS011;39148;53.332;6.922;2023-03-20T09:58:50;11.93;;;5.80;;
53253;SDS011;39148;53.332;6.922;2023-03-20T10:01:21;11.60;;;6.00;;
53253;SDS011;39148;53.332;6.922;2023-03-20T10:03:50;10.57;;;5.82;;
53253;SDS011;39148;53.332;6.922;2023-03-20T10:06:17;13.45;;;5.57;;
53253;SDS011;39148;53.332;6.922;2023-03-20T10:08:43;12.75;;;6.07;;
53253;SDS011;39148;53.332;6.922;2023-03-20T10:16:55;10.27;;;5.82;;
53253;SDS011;39148;53.332;6.922;2023-03-20T10:27:27;11.95;;;5.68;;
53253;SDS011;39148;53.332;6.922;2023-03-20T10:32:45;10.63;;;5.38;;
53253;SDS011;39148;53.332;6.922;2023-03-20T10:35:11;12.05;;;5.38;;
53253;SDS011;39148;53.332;6.922;2023-03-20T10:37:51;10.27;;;5.45;;
53253;SDS011;39148;53.332;6.922;2023-03-20T10:40:34;12.05;;;5.45;;
53253;SDS011;39148;53.332;6.922;2023-03-20T10:43:02;10.02;;;5.35;;
53253;SDS011;39148;53.332;6.922;2023-03-20T10:48:01;10.27;;;5.47;;
53253;SDS011;39148;53.332;6.922;2023-03-20T10:50:34;12.45;;;5.95;;
53253;SDS011;39148;53.332;6.922;2023-03-20T10:53:06;10.43;;;5.35;;
53253;SDS011;39148;53.332;6.922;2023-03-20T10:55:36;12.30;;;5.53;;
53253;SDS011;39148;53.332;6.922;2023-03-20T10:58:07;9.82;;;5.22;;
53253;SDS011;39148;53.332;6.922;2023-03-20T11:00:39;10.73;;;5.88;;
53253;SDS011;39148;53.332;6.922;2023-03-20T11:03:05;13.02;;;5.88;;
53253;SDS011;39148;53.332;6.922;2023-03-20T11:05:35;12.77;;;5.40;;
53253;SDS011;39148;53.332;6.922;2023-03-20T11:08:06;11.75;;;6.07;;
53253;SDS011;39148;53.332;6.922;2023-03-20T11:10:34;12.25;;;5.40;;
53253;SDS011;39148;53.332;6.922;2023-03-20T11:15:40;10.77;;;5.07;;
53253;SDS011;39148;53.332;6.922;2023-03-20T11:18:09;11.13;;;5.32;;
53253;SDS011;39148;53.332;6.922;2023-03-20T11:23:13;11.05;;;5.78;;
53253;SDS011;39148;53.332;6.922;2023-03-20T11:25:51;12.60;;;5.53;;
53253;SDS011;39148;53.332;6.922;2023-03-20T11:31:14;15.18;;;5.85;;
53253;SDS011;39148;53.332;6.922;2023-03-20T11:34:19;9.98;;;5.40;;
53253;SDS011;39148;53.332;6.922;2023-03-20T11:36:55;11.45;;;5.35;;
53253;SDS011;39148;53.332;6.922;2023-03-20T11:39:23;11.45;;;5.90;;
53253;SDS011;39148;53.332;6.922;2023-03-20T11:41:51;12.98;;;4.95;;
53253;SDS011;39148;53.332;6.922;2023-03-20T11:47:09;11.05;;;5.15;;
53253;SDS011;39148;53.332;6.922;2023-03-20T11:49:45;8.85;;;4.38;;
53253;SDS011;39148;53.332;6.922;2023-03-20T11:52:14;13.15;;;4.43;;
53253;SDS011;39148;53.332;6.922;2023-03-20T11:54:45;12.05;;;4.60;;
53253;SDS011;39148;53.332;6.922;2023-03-20T11:59:56;8.95;;;3.88;;
53253;SDS011;39148;53.332;6.922;2023-03-20T12:02:25;11.63;;;4.32;;
53253;SDS011;39148;53.332;6.922;2023-03-20T12:04:51;9.15;;;4.53;;
53253;SDS011;39148;53.332;6.922;2023-03-20T12:07:25;10.90;;;5.07;;
53253;SDS011;39148;53.332;6.922;2023-03-20T12:09:59;8.90;;;4.07;;
53253;SDS011;39148;53.332;6.922;2023-03-20T12:12:32;11.48;;;4.82;;
53253;SDS011;39148;53.332;6.922;2023-03-20T12:36:45;11.75;;;4.05;;
53253;SDS011;39148;53.332;6.922;2023-03-20T12:39:31;12.10;;;4.63;;
53253;SDS011;39148;53.332;6.922;2023-03-20T12:42:21;10.00;;;3.30;;
53253;SDS011;39148;53.332;6.922;2023-03-20T12:45:18;9.55;;;3.65;;
53253;SDS011;39148;53.332;6.922;2023-03-20T12:50:34;9.35;;;3.60;;
53253;SDS011;39148;53.332;6.922;2023-03-20T12:58:44;7.15;;;2.85;;
53253;SDS011;39148;53.332;6.922;2023-03-20T13:04:06;7.70;;;3.40;;
53253;SDS011;39148;53.332;6.922;2023-03-20T13:14:39;7.75;;;2.80;;
53253;SDS011;39148;53.332;6.922;2023-03-20T13:22:31;8.95;;;2.47;;
53253;SDS011;39148;53.332;6.922;2023-03-20T13:25:04;9.45;;;2.70;;
53253;SDS011;39148;53.332;6.922;2023-03-20T13:27:55;7.28;;;2.15;;
53253;SDS011;39148;53.332;6.922;2023-03-20T13:42:00;6.03;;;2.22;;
53253;SDS011;39148;53.332;6.922;2023-03-20T13:44:29;6.32;;;2.25;;
53253;SDS011;39148;53.332;6.922;2023-03-20T13:47:01;6.32;;;2.03;;
53253;SDS011;39148;53.332;6.922;2023-03-20T13:52:05;6.93;;;2.33;;
53253;SDS011;39148;53.332;6.922;2023-03-20T14:00:35;6.10;;;2.05;;
53253;SDS011;39148;53.332;6.922;2023-03-20T14:05:45;6.47;;;1.88;;
53253;SDS011;39148;53.332;6.922;2023-03-20T14:10:46;6.28;;;2.28;;
53253;SDS011;39148;53.332;6.922;2023-03-20T14:13:13;6.40;;;2.15;;
53253;SDS011;39148;53.332;6.922;2023-03-20T14:15:44;7.95;;;2.22;;
53253;SDS011;39148;53.332;6.922;2023-03-20T14:18:14;7.17;;;1.90;;
53253;SDS011;39148;53.332;6.922;2023-03-20T14:20:42;6.82;;;2.00;;
53253;SDS011;39148;53.332;6.922;2023-03-20T14:23:18;5.82;;;2.17;;
53253;SDS011;39148;53.332;6.922;2023-03-20T14:25:46;4.78;;;2.05;;
53253;SDS011;39148;53.332;6.922;2023-03-20T14:30:39;4.68;;;1.90;;
53253;SDS011;39148;53.332;6.922;2023-03-20T14:35:40;4.55;;;1.85;;
53253;SDS011;39148;53.332;6.922;2023-03-20T14:40:37;4.65;;;1.90;;
53253;SDS011;39148;53.332;6.922;2023-03-20T14:43:37;6.32;;;2.05;;
53253;SDS011;39148;53.332;6.922;2023-03-20T14:46:37;4.50;;;1.50;;
53253;SDS011;39148;53.332;6.922;2023-03-20T14:52:21;4.30;;;1.70;;
53253;SDS011;39148;53.332;6.922;2023-03-20T14:54:52;6.37;;;1.90;;
53253;SDS011;39148;53.332;6.922;2023-03-20T14:57:28;4.65;;;1.83;;
53253;SDS011;39148;53.332;6.922;2023-03-20T14:59:55;3.92;;;1.83;;
53253;SDS011;39148;53.332;6.922;2023-03-20T15:02:24;4.63;;;1.88;;
53253;SDS011;39148;53.332;6.922;2023-03-20T15:04:51;4.32;;;1.75;;
53253;SDS011;39148;53.332;6.922;2023-03-20T15:07:30;4.63;;;1.75;;
53253;SDS011;39148;53.332;6.922;2023-03-20T15:09:59;3.88;;;1.55;;
53253;SDS011;39148;53.332;6.922;2023-03-20T15:12:28;4.80;;;1.80;;
53253;SDS011;39148;53.332;6.922;2023-03-20T15:14:59;5.53;;;1.83;;
53253;SDS011;39148;53.332;6.922;2023-03-20T15:17:34;6.03;;;2.20;;
53253;SDS011;39148;53.332;6.922;2023-03-20T15:22:40;2.78;;;1.40;;
53253;SDS011;39148;53.332;6.922;2023-03-20T15:25:15;4.45;;;1.80;;
53253;SDS011;39148;53.332;6.922;2023-03-20T15:27:42;5.13;;;1.90;;
53253;SDS011;39148;53.332;6.922;2023-03-20T15:30:09;4.45;;;1.83;;
53253;SDS011;39148;53.332;6.922;2023-03-20T15:32:39;4.70;;;2.13;;
53253;SDS011;39148;53.332;6.922;2023-03-20T15:35:09;3.92;;;1.70;;
53253;SDS011;39148;53.332;6.922;2023-03-20T15:37:35;4.93;;;2.00;;
53253;SDS011;39148;53.332;6.922;2023-03-20T15:40:09;4.18;;;1.85;;
53253;SDS011;39148;53.332;6.922;2023-03-20T15:42:51;3.60;;;1.75;;
53253;SDS011;39148;53.332;6.922;2023-03-20T15:45:21;4.95;;;1.88;;
53253;SDS011;39148;53.332;6.922;2023-03-20T15:47:47;4.90;;;2.05;;
53253;SDS011;39148;53.332;6.922;2023-03-20T15:50:13;5.07;;;1.90;;
53253;SDS011;39148;53.332;6.922;2023-03-20T15:52:41;5.40;;;1.70;;
53253;SDS011;39148;53.332;6.922;2023-03-20T15:55:11;3.65;;;1.70;;
53253;SDS011;39148;53.332;6.922;2023-03-20T15:57:39;4.07;;;2.00;;
53253;SDS011;39148;53.332;6.922;2023-03-20T16:00:15;4.63;;;2.20;;
53253;SDS011;39148;53.332;6.922;2023-03-20T16:02:45;5.45;;;2.03;;
53253;SDS011;39148;53.332;6.922;2023-03-20T16:05:12;3.55;;;1.83;;
53253;SDS011;39148;53.332;6.922;2023-03-20T16:07:39;3.72;;;1.95;;
53253;SDS011;39148;53.332;6.922;2023-03-20T16:10:14;5.13;;;1.95;;
53253;SDS011;39148;53.332;6.922;2023-03-20T16:12:44;4.07;;;2.20;;
53253;SDS011;39148;53.332;6.922;2023-03-20T16:15:17;4.63;;;2.22;;
53253;SDS011;39148;53.332;6.922;2023-03-20T16:17:44;3.65;;;1.90;;
53253;SDS011;39148;53.332;6.922;2023-03-20T16:20:14;5.32;;;2.08;;
53253;SDS011;39148;53.332;6.922;2023-03-20T16:22:41;4.07;;;2.60;;
53253;SDS011;39148;53.332;6.922;2023-03-20T16:25:11;4.30;;;2.08;;
53253;SDS011;39148;53.332;6.922;2023-03-20T16:27:38;4.75;;;2.38;;
53253;SDS011;39148;53.332;6.922;2023-03-20T16:30:06;6.10;;;2.53;;
53253;SDS011;39148;53.332;6.922;2023-03-20T16:32:38;5.10;;;2.13;;
53253;SDS011;39148;53.332;6.922;2023-03-20T16:35:16;5.85;;;2.70;;
53253;SDS011;39148;53.332;6.922;2023-03-20T16:37:48;4.47;;;2.35;;
53253;SDS011;39148;53.332;6.922;2023-03-20T16:42:40;4.60;;;2.53;;
53253;SDS011;39148;53.332;6.922;2023-03-20T16:45:15;5.35;;;2.67;;
53253;SDS011;39148;53.332;6.922;2023-03-20T16:47:42;4.63;;;2.65;;
53253;SDS011;39148;53.332;6.922;2023-03-20T16:50:22;4.40;;;2.33;;
53253;SDS011;39148;53.332;6.922;2023-03-20T16:52:58;4.47;;;2.30;;
53253;SDS011;39148;53.332;6.922;2023-03-20T16:55:28;4.22;;;2.28;;
53253;SDS011;39148;53.332;6.922;2023-03-20T16:57:57;4.40;;;2.30;;
53253;SDS011;39148;53.332;6.922;2023-03-20T17:00:28;4.63;;;2.60;;
53253;SDS011;39148;53.332;6.922;2023-03-20T17:03:14;4.43;;;2.30;;
53253;SDS011;39148;53.332;6.922;2023-03-20T17:05:47;4.28;;;2.20;;
53253;SDS011;39148;53.332;6.922;2023-03-20T17:08:15;5.30;;;2.25;;
53253;SDS011;39148;53.332;6.922;2023-03-20T17:10:42;4.20;;;2.08;;
53253;SDS011;39148;53.332;6.922;2023-03-20T17:13:08;4.93;;;2.30;;
53253;SDS011;39148;53.332;6.922;2023-03-20T17:15:34;4.20;;;2.20;;
53253;SDS011;39148;53.332;6.922;2023-03-20T17:18:01;4.38;;;2.30;;
53253;SDS011;39148;53.332;6.922;2023-03-20T17:20:28;4.78;;;2.40;;
53253;SDS011;39148;53.332;6.922;2023-03-20T17:22:56;3.55;;;2.10;;
53253;SDS011;39148;53.332;6.922;2023-03-20T17:25:22;3.92;;;2.40;;
53253;SDS011;39148;53.332;6.922;2023-03-20T17:27:48;5.07;;;2.47;;
53253;SDS011;39148;53.332;6.922;2023-03-20T17:30:22;4.50;;;2.20;;
53253;SDS011;39148;53.332;6.922;2023-03-20T17:32:49;5.28;;;2.42;;
53253;SDS011;39148;53.332;6.922;2023-03-20T17:35:15;4.75;;;2.47;;
53253;SDS011;39148;53.332;6.922;2023-03-20T17:37:41;4.47;;;2.35;;
53253;SDS011;39148;53.332;6.922;2023-03-20T17:40:17;5.60;;;2.72;;
53253;SDS011;39148;53.332;6.922;2023-03-20T17:42:45;4.57;;;2.55;;
53253;SDS011;39148;53.332;6.922;2023-03-20T17:45:13;6.25;;;2.80;;
53253;SDS011;39148;53.332;6.922;2023-03-20T17:47:40;4.95;;;2.40;;
53253;SDS011;39148;53.332;6.922;2023-03-20T17:50:10;4.85;;;2.38;;
53253;SDS011;39148;53.332;6.922;2023-03-20T17:52:41;4.82;;;2.40;;
53253;SDS011;39148;53.332;6.922;2023-03-20T17:55:06;4.18;;;2.33;;